sensor_id;sensor_type;location;lat;lon;timestamp;temperature;humidity
5492;DHT22;2768;53.540;10.224;2022-07-23T00:01:41;17.70;99.90
5492;DHT22;2768;53.540;10.224;2022-07-23T00:07:39;17.60;99.90
5492;DHT22;2768;53.540;10.224;2022-07-23T00:13:33;17.60;99.90
5492;DHT22;2768;53.540;10.224;2022-07-23T00:19:37;17.60;99.90
5492;DHT22;2768;53.540;10.224;2022-07-23T00:25:32;17.60;99.90
5492;DHT22;2768;53.540;10.224;2022-07-23T00:31:27;17.60;99.90
5492;DHT22;2768;53.540;10.224;2022-07-23T00:37:24;17.60;99.90
5492;DHT22;2768;53.540;10.224;2022-07-23T00:43:19;17.60;99.90
5492;DHT22;2768;53.540;10.224;2022-07-23T00:49:14;17.40;99.90
5492;DHT22;2768;53.540;10.224;2022-07-23T00:55:11;17.40;99.90
5492;DHT22;2768;53.540;10.224;2022-07-23T01:01:05;17.60;99.90
5492;DHT22;2768;53.540;10.224;2022-07-23T01:07:00;17.50;99.90
5492;DHT22;2768;53.540;10.224;2022-07-23T01:12:58;17.20;99.90
5492;DHT22;2768;53.540;10.224;2022-07-23T01:18:54;17.30;99.90
5492;DHT22;2768;53.540;10.224;2022-07-23T01:24:51;17.30;99.90
5492;DHT22;2768;53.540;10.224;2022-07-23T01:30:49;17.40;99.90
5492;DHT22;2768;53.540;10.224;2022-07-23T01:36:41;17.30;99.90
5492;DHT22;2768;53.540;10.224;2022-07-23T01:42:41;17.30;99.90
5492;DHT22;2768;53.540;10.224;2022-07-23T01:48:39;17.20;99.90
5492;DHT22;2768;53.540;10.224;2022-07-23T01:54:51;17.10;99.90
5492;DHT22;2768;53.540;10.224;2022-07-23T02:00:48;17.00;99.90
5492;DHT22;2768;53.540;10.224;2022-07-23T02:06:44;16.80;99.90
5492;DHT22;2768;53.540;10.224;2022-07-23T02:12:42;17.00;99.90
5492;DHT22;2768;53.540;10.224;2022-07-23T02:18:36;17.00;99.90
5492;DHT22;2768;53.540;10.224;2022-07-23T02:24:36;17.10;99.90
5492;DHT22;2768;53.540;10.224;2022-07-23T02:30:30;17.10;99.90
5492;DHT22;2768;53.540;10.224;2022-07-23T02:36:27;17.00;99.90
5492;DHT22;2768;53.540;10.224;2022-07-23T02:42:21;16.90;99.90
5492;DHT22;2768;53.540;10.224;2022-07-23T02:48:15;16.80;99.90
5492;DHT22;2768;53.540;10.224;2022-07-23T02:54:12;16.70;99.90
5492;DHT22;2768;53.540;10.224;2022-07-23T03:00:06;17.00;99.90
5492;DHT22;2768;53.540;10.224;2022-07-23T03:06:00;17.10;99.90
5492;DHT22;2768;53.540;10.224;2022-07-23T03:11:54;17.10;99.90
5492;DHT22;2768;53.540;10.224;2022-07-23T03:17:47;16.80;99.90
5492;DHT22;2768;53.540;10.224;2022-07-23T03:23:43;17.00;99.90
5492;DHT22;2768;53.540;10.224;2022-07-23T03:29:38;17.00;99.90
5492;DHT22;2768;53.540;10.224;2022-07-23T03:35:36;17.10;99.90
5492;DHT22;2768;53.540;10.224;2022-07-23T03:41:42;17.00;99.90
5492;DHT22;2768;53.540;10.224;2022-07-23T03:47:36;16.30;99.90
5492;DHT22;2768;53.540;10.224;2022-07-23T03:53:34;16.30;99.90
5492;DHT22;2768;53.540;10.224;2022-07-23T03:59:27;16.10;99.90
5492;DHT22;2768;53.540;10.224;2022-07-23T04:05:24;16.30;99.90
5492;DHT22;2768;53.540;10.224;2022-07-23T04:11:26;16.20;99.90
5492;DHT22;2768;53.540;10.224;2022-07-23T04:17:19;16.20;99.90
5492;DHT22;2768;53.540;10.224;2022-07-23T04:23:13;16.40;99.90
5492;DHT22;2768;53.540;10.224;2022-07-23T04:29:07;16.40;99.90
5492;DHT22;2768;53.540;10.224;2022-07-23T04:35:06;16.40;99.90
5492;DHT22;2768;53.540;10.224;2022-07-23T04:41:04;16.40;99.90
5492;DHT22;2768;53.540;10.224;2022-07-23T04:46:59;16.50;99.90
5492;DHT22;2768;53.540;10.224;2022-07-23T04:52:53;16.50;99.90
5492;DHT22;2768;53.540;10.224;2022-07-23T04:58:50;16.40;99.90
5492;DHT22;2768;53.540;10.224;2022-07-23T05:04:44;16.50;99.90
5492;DHT22;2768;53.540;10.224;2022-07-23T05:10:41;16.50;99.90
5492;DHT22;2768;53.540;10.224;2022-07-23T05:16:44;16.50;99.90
5492;DHT22;2768;53.540;10.224;2022-07-23T05:22:43;16.30;99.90
5492;DHT22;2768;53.540;10.224;2022-07-23T05:28:37;16.40;99.90
5492;DHT22;2768;53.540;10.224;2022-07-23T05:34:32;16.40;99.90
5492;DHT22;2768;53.540;10.224;2022-07-23T05:40:32;16.40;99.90
5492;DHT22;2768;53.540;10.224;2022-07-23T05:46:26;16.40;99.90
5492;DHT22;2768;53.540;10.224;2022-07-23T05:52:24;16.30;99.90
5492;DHT22;2768;53.540;10.224;2022-07-23T05:58:48;16.40;99.90
5492;DHT22;2768;53.540;10.224;2022-07-23T06:04:52;16.60;99.90
5492;DHT22;2768;53.540;10.224;2022-07-23T06:10:58;16.50;99.90
5492;DHT22;2768;53.540;10.224;2022-07-23T06:16:51;16.60;99.90
5492;DHT22;2768;53.540;10.224;2022-07-23T06:22:48;16.60;99.90
5492;DHT22;2768;53.540;10.224;2022-07-23T06:28:43;16.70;99.90
5492;DHT22;2768;53.540;10.224;2022-07-23T06:34:37;16.50;99.90
5492;DHT22;2768;53.540;10.224;2022-07-23T06:40:39;16.40;99.90
5492;DHT22;2768;53.540;10.224;2022-07-23T06:46:36;16.20;99.90
5492;DHT22;2768;53.540;10.224;2022-07-23T06:52:31;16.50;99.90
5492;DHT22;2768;53.540;10.224;2022-07-23T06:58:33;16.50;99.90
5492;DHT22;2768;53.540;10.224;2022-07-23T07:04:30;16.50;99.90
5492;DHT22;2768;53.540;10.224;2022-07-23T07:10:25;16.40;99.90
5492;DHT22;2768;53.540;10.224;2022-07-23T07:16:18;16.30;99.90
5492;DHT22;2768;53.540;10.224;2022-07-23T07:22:13;16.40;99.90
5492;DHT22;2768;53.540;10.224;2022-07-23T07:28:11;16.40;99.90
5492;DHT22;2768;53.540;10.224;2022-07-23T07:34:05;16.20;99.90
5492;DHT22;2768;53.540;10.224;2022-07-23T07:40:01;16.00;99.90
5492;DHT22;2768;53.540;10.224;2022-07-23T07:45:54;16.00;99.90
5492;DHT22;2768;53.540;10.224;2022-07-23T07:51:47;16.40;99.90
5492;DHT22;2768;53.540;10.224;2022-07-23T07:57:42;16.60;99.90
5492;DHT22;2768;53.540;10.224;2022-07-23T08:03:42;16.40;99.90
5492;DHT22;2768;53.540;10.224;2022-07-23T08:09:35;16.30;99.90
5492;DHT22;2768;53.540;10.224;2022-07-23T08:15:32;16.60;99.90
5492;DHT22;2768;53.540;10.224;2022-07-23T08:21:25;16.70;99.90
5492;DHT22;2768;53.540;10.224;2022-07-23T08:27:18;16.80;99.90
5492;DHT22;2768;53.540;10.224;2022-07-23T08:33:15;16.90;99.90
5492;DHT22;2768;53.540;10.224;2022-07-23T08:39:25;16.80;99.90
5492;DHT22;2768;53.540;10.224;2022-07-23T08:45:20;16.70;99.90
5492;DHT22;2768;53.540;10.224;2022-07-23T08:51:27;16.70;99.90
5492;DHT22;2768;53.540;10.224;2022-07-23T08:57:20;16.70;99.90
5492;DHT22;2768;53.540;10.224;2022-07-23T09:03:16;16.40;99.90
5492;DHT22;2768;53.540;10.224;2022-07-23T09:09:18;15.80;99.90
5492;DHT22;2768;53.540;10.224;2022-07-23T09:15:11;16.10;99.90
5492;DHT22;2768;53.540;10.224;2022-07-23T09:21:10;16.40;99.90
5492;DHT22;2768;53.540;10.224;2022-07-23T09:27:05;16.50;99.90
5492;DHT22;2768;53.540;10.224;2022-07-23T09:33:09;16.50;99.90
5492;DHT22;2768;53.540;10.224;2022-07-23T09:39:03;16.60;99.90
5492;DHT22;2768;53.540;10.224;2022-07-23T09:44:59;16.70;99.90
5492;DHT22;2768;53.540;10.224;2022-07-23T09:51:02;16.90;99.90
5492;DHT22;2768;53.540;10.224;2022-07-23T09:56:56;17.10;99.90
5492;DHT22;2768;53.540;10.224;2022-07-23T10:02:51;17.40;99.90
5492;DHT22;2768;53.540;10.224;2022-07-23T10:09:24;17.50;99.90
5492;DHT22;2768;53.540;10.224;2022-07-23T10:15:39;17.80;99.90
5492;DHT22;2768;53.540;10.224;2022-07-23T10:21:42;17.50;99.90
5492;DHT22;2768;53.540;10.224;2022-07-23T10:28:07;17.40;99.90
5492;DHT22;2768;53.540;10.224;2022-07-23T10:34:14;17.60;99.90
5492;DHT22;2768;53.540;10.224;2022-07-23T10:40:16;17.70;99.90
5492;DHT22;2768;53.540;10.224;2022-07-23T10:46:22;17.80;99.90
5492;DHT22;2768;53.540;10.224;2022-07-23T10:52:27;17.70;99.90
5492;DHT22;2768;53.540;10.224;2022-07-23T10:58:45;17.70;99.20
5492;DHT22;2768;53.540;10.224;2022-07-23T11:04:58;18.00;96.80
5492;DHT22;2768;53.540;10.224;2022-07-23T11:11:09;18.20;94.60
5492;DHT22;2768;53.540;10.224;2022-07-23T11:17:19;18.00;83.00
5492;DHT22;2768;53.540;10.224;2022-07-23T11:23:12;18.30;83.80
5492;DHT22;2768;53.540;10.224;2022-07-23T11:36:05;18.70;85.10
5492;DHT22;2768;53.540;10.224;2022-07-23T11:41:59;18.70;85.10
5492;DHT22;2768;53.540;10.224;2022-07-23T11:47:55;18.50;76.50
5492;DHT22;2768;53.540;10.224;2022-07-23T11:54:05;18.70;88.70
5492;DHT22;2768;53.540;10.224;2022-07-23T12:00:04;19.00;95.80
5492;DHT22;2768;53.540;10.224;2022-07-23T12:06:03;18.90;96.40
5492;DHT22;2768;53.540;10.224;2022-07-23T12:12:11;19.00;97.30
5492;DHT22;2768;53.540;10.224;2022-07-23T12:18:09;19.10;96.70
5492;DHT22;2768;53.540;10.224;2022-07-23T12:24:06;19.10;96.70
5492;DHT22;2768;53.540;10.224;2022-07-23T12:30:20;18.90;90.20
5492;DHT22;2768;53.540;10.224;2022-07-23T12:36:16;18.80;92.40
5492;DHT22;2768;53.540;10.224;2022-07-23T12:42:12;18.60;89.20
5492;DHT22;2768;53.540;10.224;2022-07-23T12:48:07;18.70;93.30
5492;DHT22;2768;53.540;10.224;2022-07-23T12:54:05;18.70;79.00
5492;DHT22;2768;53.540;10.224;2022-07-23T13:00:08;18.70;76.60
5492;DHT22;2768;53.540;10.224;2022-07-23T13:06:04;18.80;81.10
5492;DHT22;2768;53.540;10.224;2022-07-23T13:11:58;18.80;85.00
5492;DHT22;2768;53.540;10.224;2022-07-23T13:17:51;19.00;93.20
5492;DHT22;2768;53.540;10.224;2022-07-23T13:23:50;18.90;74.80
5492;DHT22;2768;53.540;10.224;2022-07-23T13:29:45;19.00;80.20
5492;DHT22;2768;53.540;10.224;2022-07-23T13:35:44;18.90;63.70
5492;DHT22;2768;53.540;10.224;2022-07-23T13:41:42;19.00;70.50
5492;DHT22;2768;53.540;10.224;2022-07-23T13:47:40;18.90;56.50
5492;DHT22;2768;53.540;10.224;2022-07-23T13:53:36;18.90;44.50
5492;DHT22;2768;53.540;10.224;2022-07-23T13:59:32;18.80;37.50
5492;DHT22;2768;53.540;10.224;2022-07-23T14:05:27;18.80;40.00
5492;DHT22;2768;53.540;10.224;2022-07-23T14:11:22;19.00;48.60
5492;DHT22;2768;53.540;10.224;2022-07-23T14:17:17;19.00;53.40
5492;DHT22;2768;53.540;10.224;2022-07-23T14:23:11;19.00;61.10
5492;DHT22;2768;53.540;10.224;2022-07-23T14:29:04;19.00;42.90
5492;DHT22;2768;53.540;10.224;2022-07-23T14:35:01;19.60;43.40
5492;DHT22;2768;53.540;10.224;2022-07-23T14:40:56;19.20;40.70
5492;DHT22;2768;53.540;10.224;2022-07-23T14:46:54;19.40;57.80
5492;DHT22;2768;53.540;10.224;2022-07-23T14:52:48;19.40;55.80
5492;DHT22;2768;53.540;10.224;2022-07-23T14:58:43;19.60;48.70
5492;DHT22;2768;53.540;10.224;2022-07-23T15:04:36;19.80;37.60
5492;DHT22;2768;53.540;10.224;2022-07-23T15:10:31;19.70;30.80
5492;DHT22;2768;53.540;10.224;2022-07-23T15:16:29;19.50;28.70
5492;DHT22;2768;53.540;10.224;2022-07-23T15:22:22;19.20;26.60
5492;DHT22;2768;53.540;10.224;2022-07-23T15:28:24;19.30;27.20
5492;DHT22;2768;53.540;10.224;2022-07-23T15:34:18;19.20;20.00
5492;DHT22;2768;53.540;10.224;2022-07-23T15:40:13;19.20;20.90
5492;DHT22;2768;53.540;10.224;2022-07-23T15:46:14;19.10;22.60
5492;DHT22;2768;53.540;10.224;2022-07-23T15:52:18;19.20;25.90
5492;DHT22;2768;53.540;10.224;2022-07-23T15:58:16;18.90;23.80
5492;DHT22;2768;53.540;10.224;2022-07-23T16:04:16;18.90;24.00
5492;DHT22;2768;53.540;10.224;2022-07-23T16:10:10;19.10;30.30
5492;DHT22;2768;53.540;10.224;2022-07-23T16:16:07;18.80;20.50
5492;DHT22;2768;53.540;10.224;2022-07-23T16:22:02;19.00;24.20
5492;DHT22;2768;53.540;10.224;2022-07-23T16:27:55;18.90;17.40
5492;DHT22;2768;53.540;10.224;2022-07-23T16:33:48;19.00;25.60
5492;DHT22;2768;53.540;10.224;2022-07-23T16:39:43;19.10;21.30
5492;DHT22;2768;53.540;10.224;2022-07-23T16:45:38;19.10;17.60
5492;DHT22;2768;53.540;10.224;2022-07-23T16:51:33;19.10;13.30
5492;DHT22;2768;53.540;10.224;2022-07-23T16:57:29;19.10;13.30
5492;DHT22;2768;53.540;10.224;2022-07-23T17:03:22;18.90;7.60
5492;DHT22;2768;53.540;10.224;2022-07-23T17:09:16;18.80;7.90
5492;DHT22;2768;53.540;10.224;2022-07-23T17:15:16;18.80;9.70
5492;DHT22;2768;53.540;10.224;2022-07-23T17:21:09;18.70;8.30
5492;DHT22;2768;53.540;10.224;2022-07-23T17:27:03;18.90;13.10
5492;DHT22;2768;53.540;10.224;2022-07-23T17:33:13;19.00;13.20
5492;DHT22;2768;53.540;10.224;2022-07-23T17:39:12;18.80;8.90
5492;DHT22;2768;53.540;10.224;2022-07-23T17:45:08;18.90;13.20
5492;DHT22;2768;53.540;10.224;2022-07-23T17:51:21;18.90;17.30
5492;DHT22;2768;53.540;10.224;2022-07-23T17:57:14;18.80;15.80
5492;DHT22;2768;53.540;10.224;2022-07-23T18:03:07;18.80;16.10
5492;DHT22;2768;53.540;10.224;2022-07-23T18:09:01;18.80;13.90
5492;DHT22;2768;53.540;10.224;2022-07-23T18:14:58;18.70;13.00
5492;DHT22;2768;53.540;10.224;2022-07-23T18:20:58;18.70;13.10
5492;DHT22;2768;53.540;10.224;2022-07-23T18:26:52;18.70;21.30
5492;DHT22;2768;53.540;10.224;2022-07-23T18:32:45;18.70;32.20
5492;DHT22;2768;53.540;10.224;2022-07-23T18:38:40;18.60;33.80
5492;DHT22;2768;53.540;10.224;2022-07-23T18:44:49;18.50;35.30
5492;DHT22;2768;53.540;10.224;2022-07-23T18:50:46;18.50;44.50
5492;DHT22;2768;53.540;10.224;2022-07-23T18:56:39;18.50;44.10
5492;DHT22;2768;53.540;10.224;2022-07-23T19:02:36;18.40;34.70
5492;DHT22;2768;53.540;10.224;2022-07-23T19:08:32;18.30;34.20
5492;DHT22;2768;53.540;10.224;2022-07-23T19:14:28;18.20;34.30
5492;DHT22;2768;53.540;10.224;2022-07-23T19:20:23;18.10;33.30
5492;DHT22;2768;53.540;10.224;2022-07-23T19:26:16;18.10;29.30
5492;DHT22;2768;53.540;10.224;2022-07-23T19:32:09;17.90;31.80
5492;DHT22;2768;53.540;10.224;2022-07-23T19:38:12;17.90;37.60
5492;DHT22;2768;53.540;10.224;2022-07-23T19:44:12;17.90;39.60
5492;DHT22;2768;53.540;10.224;2022-07-23T19:50:08;17.70;37.80
5492;DHT22;2768;53.540;10.224;2022-07-23T19:56:03;17.70;49.60
5492;DHT22;2768;53.540;10.224;2022-07-23T20:01:56;17.70;45.70
5492;DHT22;2768;53.540;10.224;2022-07-23T20:07:52;17.60;40.40
5492;DHT22;2768;53.540;10.224;2022-07-23T20:13:50;17.50;49.40
5492;DHT22;2768;53.540;10.224;2022-07-23T20:19:43;17.70;43.00
5492;DHT22;2768;53.540;10.224;2022-07-23T20:25:39;17.50;48.20
5492;DHT22;2768;53.540;10.224;2022-07-23T20:31:33;17.30;51.50
5492;DHT22;2768;53.540;10.224;2022-07-23T20:37:28;17.10;56.50
5492;DHT22;2768;53.540;10.224;2022-07-23T20:43:21;17.10;64.00
5492;DHT22;2768;53.540;10.224;2022-07-23T20:49:16;17.00;64.70
5492;DHT22;2768;53.540;10.224;2022-07-23T20:55:10;16.80;71.90
5492;DHT22;2768;53.540;10.224;2022-07-23T21:01:04;16.60;82.40
5492;DHT22;2768;53.540;10.224;2022-07-23T21:06:59;16.90;90.90
5492;DHT22;2768;53.540;10.224;2022-07-23T21:12:52;16.70;89.00
5492;DHT22;2768;53.540;10.224;2022-07-23T21:18:45;16.40;95.30
5492;DHT22;2768;53.540;10.224;2022-07-23T21:24:39;16.30;99.90
5492;DHT22;2768;53.540;10.224;2022-07-23T21:30:34;16.30;99.90
5492;DHT22;2768;53.540;10.224;2022-07-23T21:36:28;16.30;99.90
5492;DHT22;2768;53.540;10.224;2022-07-23T21:42:36;16.10;99.90
5492;DHT22;2768;53.540;10.224;2022-07-23T21:48:29;16.00;99.90
5492;DHT22;2768;53.540;10.224;2022-07-23T21:54:23;15.90;99.90
5492;DHT22;2768;53.540;10.224;2022-07-23T22:00:20;15.90;99.90
5492;DHT22;2768;53.540;10.224;2022-07-23T22:06:14;16.00;99.90
5492;DHT22;2768;53.540;10.224;2022-07-23T22:12:07;15.90;99.90
5492;DHT22;2768;53.540;10.224;2022-07-23T22:18:02;15.60;99.90
5492;DHT22;2768;53.540;10.224;2022-07-23T22:23:58;15.50;99.90
5492;DHT22;2768;53.540;10.224;2022-07-23T22:29:53;15.30;99.90
5492;DHT22;2768;53.540;10.224;2022-07-23T22:35:47;15.20;99.90
5492;DHT22;2768;53.540;10.224;2022-07-23T22:41:43;15.50;99.90
5492;DHT22;2768;53.540;10.224;2022-07-23T22:47:36;15.70;99.90
5492;DHT22;2768;53.540;10.224;2022-07-23T22:53:32;15.60;99.90
5492;DHT22;2768;53.540;10.224;2022-07-23T22:59:25;15.50;99.90
5492;DHT22;2768;53.540;10.224;2022-07-23T23:05:22;15.50;99.90
5492;DHT22;2768;53.540;10.224;2022-07-23T23:11:16;15.60;99.90
5492;DHT22;2768;53.540;10.224;2022-07-23T23:17:11;15.40;99.90
5492;DHT22;2768;53.540;10.224;2022-07-23T23:23:04;15.00;99.90
5492;DHT22;2768;53.540;10.224;2022-07-23T23:28:59;14.80;99.90
5492;DHT22;2768;53.540;10.224;2022-07-23T23:34:58;14.70;99.90
5492;DHT22;2768;53.540;10.224;2022-07-23T23:40:54;14.70;99.90
5492;DHT22;2768;53.540;10.224;2022-07-23T23:46:50;14.50;99.90
5492;DHT22;2768;53.540;10.224;2022-07-23T23:52:43;14.50;99.90
5492;DHT22;2768;53.540;10.224;2022-07-23T23:58:39;14.30;99.90
